This is the latest recevied weather packets stored in our database for station/object W3BRL. If no packets are shown the sender has not sent any weather packets the latest 1 day(s).
| Time | Temp. | Humidity | Pressure | Rain* | Wind** | Luminosity | Snow |
|---|---|---|---|---|---|---|---|
| 1778033083 | 20° C | 46% | 1005.8 hPa | 0 mm | - | 0 W/m² | - |
| 1778032780 | 20° C | 46% | 1005.8 hPa | 0 mm | - | 0 W/m² | - |
| 1778032477 | 20° C | 46% | 1005.9 hPa | 0 mm | - | 0 W/m² | - |
| 1778032174 | 20° C | 45% | 1006 hPa | 0 mm | - | 0 W/m² | - |
| 1778031871 | 20° C | 45% | 1005.8 hPa | 0 mm | - | 0 W/m² | - |
| 1778031567 | 20° C | 45% | 1005.9 hPa | 0 mm | - | 0 W/m² | - |
| 1778031266 | 20° C | 45% | 1005.7 hPa | 0 mm | - | 0 W/m² | - |
| 1778030961 | 20° C | 44% | 1005.8 hPa | 0 mm | - | 0 W/m² | - |
| 1778030658 | 20° C | 45% | 1005.8 hPa | 0 mm | - | 0 W/m² | - |
| 1778030355 | 20° C | 44% | 1005.9 hPa | 0 mm | - | 0 W/m² | - |
| 1778029448 | 20.56° C | 44% | 1005.8 hPa | 0 mm | - | 0 W/m² | - |
| 1778028842 | 20.56° C | 44% | 1006 hPa | 0 mm | - | 0 W/m² | - |
| 1778028235 | 20.56° C | 44% | 1006.2 hPa | 0 mm | - | 0 W/m² | - |
| 1778027931 | 20.56° C | 43% | 1005.9 hPa | 0 mm | - | 0 W/m² | - |
| 1778027020 | 20.56° C | 43% | 1006 hPa | 0 mm | - | 1 W/m² | - |
| 1778026413 | 21.11° C | 44% | 1006.2 hPa | 0 mm | - | 3 W/m² | - |
| 1778026110 | 21.11° C | 44% | 1006.1 hPa | 0 mm | - | 5 W/m² | - |
| 1778025808 | 21.11° C | 44% | 1005.9 hPa | 0 mm | - | 7 W/m² | - |
| 1778022175 | 21.67° C | 45% | 1005.9 hPa | 0 mm | - | 52 W/m² | - |
| 1778021569 | 21.67° C | 44% | 1005.9 hPa | 0 mm | - | 57 W/m² | - |
| 1778018234 | 22.78° C | 44% | 1006.2 hPa | 0 mm | - | 196 W/m² | - |
| 1778017629 | 22.22° C | 45% | 1006 hPa | 0 mm | - | 205 W/m² | - |
| 1778016114 | 21.11° C | 52% | 1006 hPa | 0 mm | - | 203 W/m² | - |
* Rain latest hour (hover to see other rain measurements)
** Current wind speed in m/s (hover to see current wind gust speed)